Rolesville, North Carolina
Current Conditions -  °F | °C
As of 8:35 PM on Thursday 27 Nov 2014 (Local Time) from KLHZ Reporting Station
Clear Clear  
Wind Chill: 32°   Ceiling: Unl
Heat Index: 36°   Visibility: 10mi
Dew Point: 30°   Wind: 5mph
Humidity: 81%   Direction: 320°NW
Pressure: 30.22"   Gusts: NA
Location:  35.92°N, 78.46°W
Report Text: KLHZ 280135Z AUTO 32004KT 10SM CLR 02/M01 A3022 RMK AO2
Loading
Personal Weather Stations






























Interactive Weather Map New forecast layout! Learn more

10-Day Weather Forecast

Advertisements
Track Severe Weather on mobile